Fort Garland, Colorado
Current Conditions -  °F | °C
As of 12:30 PM on Thursday 27 Nov 2014 (Local Time) from KVTP Reporting Station
Clear Clear  
Wind Chill: 35°   Ceiling: Unl
Heat Index: 41°   Visibility: 10mi
Dew Point: 18°   Wind: 9mph
Humidity: 39%   Direction: 200°SSW
Pressure: 30.45"   Gusts: NA
Location:  37.43°N, 105.43°W
Report Text: KVTP 271930Z AUTO 20008KT 160V220 10SM CLR 05/M08 A3045 RMK AO2 P0001
Loading
Personal Weather Stations






























Interactive Weather Map New forecast layout! Learn more

10-Day Weather Forecast

Advertisements
Track Severe Weather on mobile